sensor_id;sensor_type;location;lat;lon;timestamp;temperature;humidity
20125;DHT22;10223;50.862;4.360;2024-03-02T00:01:31;6.50;99.90
20125;DHT22;10223;50.862;4.360;2024-03-02T00:03:58;6.50;99.90
20125;DHT22;10223;50.862;4.360;2024-03-02T00:06:26;6.40;99.90
20125;DHT22;10223;50.862;4.360;2024-03-02T00:08:57;6.40;99.90
20125;DHT22;10223;50.862;4.360;2024-03-02T00:11:25;6.40;99.90
20125;DHT22;10223;50.862;4.360;2024-03-02T00:13:53;6.50;99.90
20125;DHT22;10223;50.862;4.360;2024-03-02T00:16:20;6.50;99.90
20125;DHT22;10223;50.862;4.360;2024-03-02T00:18:49;6.50;99.90
20125;DHT22;10223;50.862;4.360;2024-03-02T00:21:16;6.50;99.90
20125;DHT22;10223;50.862;4.360;2024-03-02T00:23:45;6.40;99.90
20125;DHT22;10223;50.862;4.360;2024-03-02T00:26:12;6.60;99.90
20125;DHT22;10223;50.862;4.360;2024-03-02T00:28:40;6.50;99.90
20125;DHT22;10223;50.862;4.360;2024-03-02T00:31:09;6.50;99.90
20125;DHT22;10223;50.862;4.360;2024-03-02T00:33:40;6.50;99.90
20125;DHT22;10223;50.862;4.360;2024-03-02T00:36:10;6.50;99.90
20125;DHT22;10223;50.862;4.360;2024-03-02T00:38:44;6.60;99.90
20125;DHT22;10223;50.862;4.360;2024-03-02T00:41:16;6.60;99.90
20125;DHT22;10223;50.862;4.360;2024-03-02T00:43:58;6.70;99.90
20125;DHT22;10223;50.862;4.360;2024-03-02T00:46:27;6.60;99.90
20125;DHT22;10223;50.862;4.360;2024-03-02T00:48:56;6.60;99.90
20125;DHT22;10223;50.862;4.360;2024-03-02T00:51:26;6.50;99.90
20125;DHT22;10223;50.862;4.360;2024-03-02T00:53:55;6.60;99.90
20125;DHT22;10223;50.862;4.360;2024-03-02T00:56:22;6.70;99.90
20125;DHT22;10223;50.862;4.360;2024-03-02T00:58:49;6.60;99.90
20125;DHT22;10223;50.862;4.360;2024-03-02T01:01:16;6.60;99.90
20125;DHT22;10223;50.862;4.360;2024-03-02T01:03:43;6.70;99.90
20125;DHT22;10223;50.862;4.360;2024-03-02T01:06:10;6.60;99.90
20125;DHT22;10223;50.862;4.360;2024-03-02T01:08:39;6.60;99.90
20125;DHT22;10223;50.862;4.360;2024-03-02T01:11:06;6.60;99.90
20125;DHT22;10223;50.862;4.360;2024-03-02T01:13:33;6.60;99.90
20125;DHT22;10223;50.862;4.360;2024-03-02T01:16:00;6.60;99.90
20125;DHT22;10223;50.862;4.360;2024-03-02T01:18:28;6.70;99.90
20125;DHT22;10223;50.862;4.360;2024-03-02T01:20:55;6.70;99.90
20125;DHT22;10223;50.862;4.360;2024-03-02T01:23:22;6.70;99.90
20125;DHT22;10223;50.862;4.360;2024-03-02T01:25:51;6.70;99.90
20125;DHT22;10223;50.862;4.360;2024-03-02T01:28:18;6.70;99.90
20125;DHT22;10223;50.862;4.360;2024-03-02T01:30:46;6.60;99.90
20125;DHT22;10223;50.862;4.360;2024-03-02T01:33:13;6.70;99.90
20125;DHT22;10223;50.862;4.360;2024-03-02T01:35:40;6.70;99.90
20125;DHT22;10223;50.862;4.360;2024-03-02T01:38:07;6.70;99.90
20125;DHT22;10223;50.862;4.360;2024-03-02T01:40:34;6.70;99.90
20125;DHT22;10223;50.862;4.360;2024-03-02T01:43:03;6.70;99.90
20125;DHT22;10223;50.862;4.360;2024-03-02T01:45:30;6.60;99.90
20125;DHT22;10223;50.862;4.360;2024-03-02T01:47:57;6.70;99.90
20125;DHT22;10223;50.862;4.360;2024-03-02T01:50:26;6.60;99.90
20125;DHT22;10223;50.862;4.360;2024-03-02T01:52:54;6.70;99.90
20125;DHT22;10223;50.862;4.360;2024-03-02T01:55:22;6.70;99.90
20125;DHT22;10223;50.862;4.360;2024-03-02T01:57:49;6.70;99.90
20125;DHT22;10223;50.862;4.360;2024-03-02T02:00:19;6.70;99.90
20125;DHT22;10223;50.862;4.360;2024-03-02T02:02:47;6.70;99.90
20125;DHT22;10223;50.862;4.360;2024-03-02T02:05:15;6.70;99.90
20125;DHT22;10223;50.862;4.360;2024-03-02T02:07:42;6.70;99.90
20125;DHT22;10223;50.862;4.360;2024-03-02T02:10:10;6.70;99.90
20125;DHT22;10223;50.862;4.360;2024-03-02T02:12:38;6.70;99.90
20125;DHT22;10223;50.862;4.360;2024-03-02T02:15:26;6.70;99.90
20125;DHT22;10223;50.862;4.360;2024-03-02T02:17:53;6.70;99.90
20125;DHT22;10223;50.862;4.360;2024-03-02T02:20:20;6.80;99.90
20125;DHT22;10223;50.862;4.360;2024-03-02T02:22:59;6.80;99.90
20125;DHT22;10223;50.862;4.360;2024-03-02T02:25:26;6.80;99.90
20125;DHT22;10223;50.862;4.360;2024-03-02T02:27:54;6.80;99.90
20125;DHT22;10223;50.862;4.360;2024-03-02T02:30:23;6.90;99.90
20125;DHT22;10223;50.862;4.360;2024-03-02T02:32:50;6.80;99.90
20125;DHT22;10223;50.862;4.360;2024-03-02T02:35:17;6.80;99.90
20125;DHT22;10223;50.862;4.360;2024-03-02T02:37:44;6.80;99.90
20125;DHT22;10223;50.862;4.360;2024-03-02T02:40:14;6.80;99.90
20125;DHT22;10223;50.862;4.360;2024-03-02T02:42:41;6.70;99.90
20125;DHT22;10223;50.862;4.360;2024-03-02T02:45:08;6.70;99.90
20125;DHT22;10223;50.862;4.360;2024-03-02T02:47:36;6.80;99.90
20125;DHT22;10223;50.862;4.360;2024-03-02T02:50:04;6.70;99.90
20125;DHT22;10223;50.862;4.360;2024-03-02T02:52:31;6.70;99.90
20125;DHT22;10223;50.862;4.360;2024-03-02T02:55:04;6.70;99.90
20125;DHT22;10223;50.862;4.360;2024-03-02T02:57:32;6.70;99.90
20125;DHT22;10223;50.862;4.360;2024-03-02T03:00:04;6.70;99.90
20125;DHT22;10223;50.862;4.360;2024-03-02T03:02:36;6.60;99.90
20125;DHT22;10223;50.862;4.360;2024-03-02T03:05:03;6.70;99.90
20125;DHT22;10223;50.862;4.360;2024-03-02T03:07:31;6.60;99.90
20125;DHT22;10223;50.862;4.360;2024-03-02T03:09:58;6.60;99.90
20125;DHT22;10223;50.862;4.360;2024-03-02T03:12:25;6.60;99.90
20125;DHT22;10223;50.862;4.360;2024-03-02T03:14:53;6.60;99.90
20125;DHT22;10223;50.862;4.360;2024-03-02T03:17:21;6.60;99.90
20125;DHT22;10223;50.862;4.360;2024-03-02T03:19:48;6.60;99.90
20125;DHT22;10223;50.862;4.360;2024-03-02T03:22:15;6.60;99.90
20125;DHT22;10223;50.862;4.360;2024-03-02T03:24:42;6.50;99.90
20125;DHT22;10223;50.862;4.360;2024-03-02T03:27:09;6.50;99.90
20125;DHT22;10223;50.862;4.360;2024-03-02T03:29:36;6.50;99.90
20125;DHT22;10223;50.862;4.360;2024-03-02T03:32:05;6.50;99.90
20125;DHT22;10223;50.862;4.360;2024-03-02T03:34:33;6.50;99.90
20125;DHT22;10223;50.862;4.360;2024-03-02T03:37:00;6.50;99.90
20125;DHT22;10223;50.862;4.360;2024-03-02T03:39:27;6.50;99.90
20125;DHT22;10223;50.862;4.360;2024-03-02T03:41:54;6.60;99.90
20125;DHT22;10223;50.862;4.360;2024-03-02T03:44:21;6.60;99.90
20125;DHT22;10223;50.862;4.360;2024-03-02T03:46:48;6.60;99.90
20125;DHT22;10223;50.862;4.360;2024-03-02T03:49:16;6.60;99.90
20125;DHT22;10223;50.862;4.360;2024-03-02T03:51:43;6.60;99.90
20125;DHT22;10223;50.862;4.360;2024-03-02T03:54:10;6.60;99.90
20125;DHT22;10223;50.862;4.360;2024-03-02T03:56:37;6.70;99.90
20125;DHT22;10223;50.862;4.360;2024-03-02T03:59:04;6.70;99.90
20125;DHT22;10223;50.862;4.360;2024-03-02T04:01:31;6.70;99.90
20125;DHT22;10223;50.862;4.360;2024-03-02T04:03:59;6.70;99.90
20125;DHT22;10223;50.862;4.360;2024-03-02T04:06:29;6.60;99.90
20125;DHT22;10223;50.862;4.360;2024-03-02T04:08:55;6.70;99.90
20125;DHT22;10223;50.862;4.360;2024-03-02T04:11:22;6.70;99.90
20125;DHT22;10223;50.862;4.360;2024-03-02T04:13:49;6.60;99.90
20125;DHT22;10223;50.862;4.360;2024-03-02T04:16:16;6.70;99.90
20125;DHT22;10223;50.862;4.360;2024-03-02T04:18:43;6.80;99.90
20125;DHT22;10223;50.862;4.360;2024-03-02T04:21:10;6.80;99.90
20125;DHT22;10223;50.862;4.360;2024-03-02T04:23:38;6.80;99.90
20125;DHT22;10223;50.862;4.360;2024-03-02T04:26:05;6.70;99.90
20125;DHT22;10223;50.862;4.360;2024-03-02T04:28:32;6.80;99.90
20125;DHT22;10223;50.862;4.360;2024-03-02T04:30:59;6.80;99.90
20125;DHT22;10223;50.862;4.360;2024-03-02T04:33:26;6.70;99.90
20125;DHT22;10223;50.862;4.360;2024-03-02T04:35:53;6.80;99.90
20125;DHT22;10223;50.862;4.360;2024-03-02T04:38:19;6.70;99.90
20125;DHT22;10223;50.862;4.360;2024-03-02T04:40:48;6.70;99.90
20125;DHT22;10223;50.862;4.360;2024-03-02T04:43:15;6.70;99.90
20125;DHT22;10223;50.862;4.360;2024-03-02T04:45:42;6.70;99.90
20125;DHT22;10223;50.862;4.360;2024-03-02T04:48:09;6.70;99.90
20125;DHT22;10223;50.862;4.360;2024-03-02T04:50:36;6.70;99.90
20125;DHT22;10223;50.862;4.360;2024-03-02T04:53:03;6.70;99.90
20125;DHT22;10223;50.862;4.360;2024-03-02T04:55:30;6.70;99.90
20125;DHT22;10223;50.862;4.360;2024-03-02T04:58:25;6.70;99.90
20125;DHT22;10223;50.862;4.360;2024-03-02T05:00:52;6.60;99.90
20125;DHT22;10223;50.862;4.360;2024-03-02T05:03:18;6.60;99.90
20125;DHT22;10223;50.862;4.360;2024-03-02T05:05:45;6.60;99.90
20125;DHT22;10223;50.862;4.360;2024-03-02T05:08:13;6.60;99.90
20125;DHT22;10223;50.862;4.360;2024-03-02T05:10:41;6.60;99.90
20125;DHT22;10223;50.862;4.360;2024-03-02T05:13:08;6.60;99.90
20125;DHT22;10223;50.862;4.360;2024-03-02T05:15:35;6.50;99.90
20125;DHT22;10223;50.862;4.360;2024-03-02T05:18:03;6.50;99.90
20125;DHT22;10223;50.862;4.360;2024-03-02T05:20:30;6.50;99.90
20125;DHT22;10223;50.862;4.360;2024-03-02T05:22:57;6.50;99.90
20125;DHT22;10223;50.862;4.360;2024-03-02T05:25:24;6.40;99.90
20125;DHT22;10223;50.862;4.360;2024-03-02T05:27:51;6.40;99.90
20125;DHT22;10223;50.862;4.360;2024-03-02T05:30:18;6.30;99.90
20125;DHT22;10223;50.862;4.360;2024-03-02T05:32:46;6.30;99.90
20125;DHT22;10223;50.862;4.360;2024-03-02T05:35:13;6.40;99.90
20125;DHT22;10223;50.862;4.360;2024-03-02T05:37:40;6.30;99.90
20125;DHT22;10223;50.862;4.360;2024-03-02T05:40:08;6.30;99.90
20125;DHT22;10223;50.862;4.360;2024-03-02T05:42:36;6.30;99.90
20125;DHT22;10223;50.862;4.360;2024-03-02T05:45:04;6.40;99.90
20125;DHT22;10223;50.862;4.360;2024-03-02T05:47:34;6.20;99.90
20125;DHT22;10223;50.862;4.360;2024-03-02T05:50:02;6.30;99.90
20125;DHT22;10223;50.862;4.360;2024-03-02T05:52:30;6.30;99.90
20125;DHT22;10223;50.862;4.360;2024-03-02T05:54:56;6.30;99.90
20125;DHT22;10223;50.862;4.360;2024-03-02T05:57:24;6.30;99.90
20125;DHT22;10223;50.862;4.360;2024-03-02T06:00:11;6.30;99.90
20125;DHT22;10223;50.862;4.360;2024-03-02T06:02:39;6.20;99.90
20125;DHT22;10223;50.862;4.360;2024-03-02T06:05:08;6.30;99.90
20125;DHT22;10223;50.862;4.360;2024-03-02T06:07:35;6.30;99.90
20125;DHT22;10223;50.862;4.360;2024-03-02T06:10:01;6.30;99.90
20125;DHT22;10223;50.862;4.360;2024-03-02T06:12:31;6.30;99.90
20125;DHT22;10223;50.862;4.360;2024-03-02T06:14:57;6.30;99.90
20125;DHT22;10223;50.862;4.360;2024-03-02T06:17:24;6.20;99.90
20125;DHT22;10223;50.862;4.360;2024-03-02T06:19:51;6.40;99.90
20125;DHT22;10223;50.862;4.360;2024-03-02T06:22:20;6.30;99.90
20125;DHT22;10223;50.862;4.360;2024-03-02T06:24:48;6.30;99.90
20125;DHT22;10223;50.862;4.360;2024-03-02T06:27:15;6.20;99.90
20125;DHT22;10223;50.862;4.360;2024-03-02T06:29:42;6.30;99.90
20125;DHT22;10223;50.862;4.360;2024-03-02T06:32:09;6.20;99.90
20125;DHT22;10223;50.862;4.360;2024-03-02T06:34:36;6.20;99.90
20125;DHT22;10223;50.862;4.360;2024-03-02T06:37:03;6.20;99.90
20125;DHT22;10223;50.862;4.360;2024-03-02T06:39:32;6.20;99.90
20125;DHT22;10223;50.862;4.360;2024-03-02T06:41:59;6.20;99.90
20125;DHT22;10223;50.862;4.360;2024-03-02T06:44:27;6.20;99.90
20125;DHT22;10223;50.862;4.360;2024-03-02T06:46:53;6.20;99.90
20125;DHT22;10223;50.862;4.360;2024-03-02T06:49:20;6.20;99.90
20125;DHT22;10223;50.862;4.360;2024-03-02T06:51:47;6.20;99.90
20125;DHT22;10223;50.862;4.360;2024-03-02T06:54:15;6.20;99.90
20125;DHT22;10223;50.862;4.360;2024-03-02T06:56:43;6.20;99.90
20125;DHT22;10223;50.862;4.360;2024-03-02T06:59:10;6.20;99.90
20125;DHT22;10223;50.862;4.360;2024-03-02T07:01:37;6.20;99.90
20125;DHT22;10223;50.862;4.360;2024-03-02T07:04:04;6.20;99.90
20125;DHT22;10223;50.862;4.360;2024-03-02T07:06:31;6.20;99.90
20125;DHT22;10223;50.862;4.360;2024-03-02T07:08:58;6.20;99.90
20125;DHT22;10223;50.862;4.360;2024-03-02T07:11:25;6.20;99.90
20125;DHT22;10223;50.862;4.360;2024-03-02T07:13:54;6.30;99.90
20125;DHT22;10223;50.862;4.360;2024-03-02T07:16:20;6.20;99.90
20125;DHT22;10223;50.862;4.360;2024-03-02T07:18:58;6.30;99.90
20125;DHT22;10223;50.862;4.360;2024-03-02T07:21:27;6.40;99.90
20125;DHT22;10223;50.862;4.360;2024-03-02T07:23:54;6.40;99.90
20125;DHT22;10223;50.862;4.360;2024-03-02T07:26:21;6.40;99.90
20125;DHT22;10223;50.862;4.360;2024-03-02T07:28:48;6.40;99.90
20125;DHT22;10223;50.862;4.360;2024-03-02T07:31:17;6.50;99.90
20125;DHT22;10223;50.862;4.360;2024-03-02T07:33:44;6.60;99.90
20125;DHT22;10223;50.862;4.360;2024-03-02T07:36:12;6.70;99.90
20125;DHT22;10223;50.862;4.360;2024-03-02T07:38:39;7.00;99.90
20125;DHT22;10223;50.862;4.360;2024-03-02T07:41:07;7.00;99.90
20125;DHT22;10223;50.862;4.360;2024-03-02T07:43:34;7.00;99.90
20125;DHT22;10223;50.862;4.360;2024-03-02T07:46:01;7.10;99.90
20125;DHT22;10223;50.862;4.360;2024-03-02T07:48:30;7.30;99.90
20125;DHT22;10223;50.862;4.360;2024-03-02T07:50:57;7.40;99.90
20125;DHT22;10223;50.862;4.360;2024-03-02T07:53:24;7.60;99.90
20125;DHT22;10223;50.862;4.360;2024-03-02T07:55:51;7.70;99.90
20125;DHT22;10223;50.862;4.360;2024-03-02T07:58:18;7.70;99.90
20125;DHT22;10223;50.862;4.360;2024-03-02T08:00:45;7.70;99.90
20125;DHT22;10223;50.862;4.360;2024-03-02T08:03:13;7.80;99.90
20125;DHT22;10223;50.862;4.360;2024-03-02T08:05:41;7.70;99.90
20125;DHT22;10223;50.862;4.360;2024-03-02T08:08:08;7.70;99.90
20125;DHT22;10223;50.862;4.360;2024-03-02T08:10:35;7.80;99.90
20125;DHT22;10223;50.862;4.360;2024-03-02T08:13:02;7.80;99.90
20125;DHT22;10223;50.862;4.360;2024-03-02T08:15:29;7.80;99.90
20125;DHT22;10223;50.862;4.360;2024-03-02T08:17:57;8.00;99.90
20125;DHT22;10223;50.862;4.360;2024-03-02T08:20:24;7.90;99.90
20125;DHT22;10223;50.862;4.360;2024-03-02T08:22:52;8.00;99.90
20125;DHT22;10223;50.862;4.360;2024-03-02T08:25:20;8.20;99.90
20125;DHT22;10223;50.862;4.360;2024-03-02T08:27:48;8.10;99.90
20125;DHT22;10223;50.862;4.360;2024-03-02T08:30:15;8.30;99.90
20125;DHT22;10223;50.862;4.360;2024-03-02T08:32:41;8.30;99.90
20125;DHT22;10223;50.862;4.360;2024-03-02T08:35:08;8.40;99.90
20125;DHT22;10223;50.862;4.360;2024-03-02T08:37:38;8.40;99.90
20125;DHT22;10223;50.862;4.360;2024-03-02T08:40:08;8.50;99.90
20125;DHT22;10223;50.862;4.360;2024-03-02T08:42:36;8.60;99.90
20125;DHT22;10223;50.862;4.360;2024-03-02T08:45:03;8.70;99.90
20125;DHT22;10223;50.862;4.360;2024-03-02T08:47:30;8.80;99.90
20125;DHT22;10223;50.862;4.360;2024-03-02T08:49:58;8.60;99.90
20125;DHT22;10223;50.862;4.360;2024-03-02T08:52:25;8.70;99.90
20125;DHT22;10223;50.862;4.360;2024-03-02T08:54:52;8.90;99.90
20125;DHT22;10223;50.862;4.360;2024-03-02T08:57:20;8.90;99.90
20125;DHT22;10223;50.862;4.360;2024-03-02T08:59:47;8.90;99.90
20125;DHT22;10223;50.862;4.360;2024-03-02T09:02:14;9.00;99.90
20125;DHT22;10223;50.862;4.360;2024-03-02T09:04:41;9.10;99.90
20125;DHT22;10223;50.862;4.360;2024-03-02T09:07:08;9.30;99.90
20125;DHT22;10223;50.862;4.360;2024-03-02T09:09:35;9.30;99.90
20125;DHT22;10223;50.862;4.360;2024-03-02T09:12:01;9.40;99.90
20125;DHT22;10223;50.862;4.360;2024-03-02T09:14:30;9.40;99.90
20125;DHT22;10223;50.862;4.360;2024-03-02T09:16:57;9.40;99.90
20125;DHT22;10223;50.862;4.360;2024-03-02T09:19:24;9.50;99.90
20125;DHT22;10223;50.862;4.360;2024-03-02T09:21:51;9.80;99.90
20125;DHT22;10223;50.862;4.360;2024-03-02T09:24:18;9.80;99.90
20125;DHT22;10223;50.862;4.360;2024-03-02T09:26:45;9.60;99.90
20125;DHT22;10223;50.862;4.360;2024-03-02T09:29:12;9.70;99.90
20125;DHT22;10223;50.862;4.360;2024-03-02T09:31:41;9.70;99.90
20125;DHT22;10223;50.862;4.360;2024-03-02T09:34:08;9.60;99.90
20125;DHT22;10223;50.862;4.360;2024-03-02T09:36:35;9.30;99.90
20125;DHT22;10223;50.862;4.360;2024-03-02T09:39:02;9.40;99.90
20125;DHT22;10223;50.862;4.360;2024-03-02T09:41:29;9.40;99.90
20125;DHT22;10223;50.862;4.360;2024-03-02T09:43:56;9.30;99.90
20125;DHT22;10223;50.862;4.360;2024-03-02T09:46:26;9.20;99.90
20125;DHT22;10223;50.862;4.360;2024-03-02T09:48:55;9.10;99.90
20125;DHT22;10223;50.862;4.360;2024-03-02T09:51:22;9.20;99.90
20125;DHT22;10223;50.862;4.360;2024-03-02T09:53:50;9.20;99.90
20125;DHT22;10223;50.862;4.360;2024-03-02T09:56:17;9.20;99.90
20125;DHT22;10223;50.862;4.360;2024-03-02T09:58:45;9.20;99.90
20125;DHT22;10223;50.862;4.360;2024-03-02T10:01:11;9.30;99.90
20125;DHT22;10223;50.862;4.360;2024-03-02T10:03:39;9.40;99.90
20125;DHT22;10223;50.862;4.360;2024-03-02T10:06:24;9.40;99.90
20125;DHT22;10223;50.862;4.360;2024-03-02T10:08:51;9.60;99.90
20125;DHT22;10223;50.862;4.360;2024-03-02T10:11:29;9.70;99.90
20125;DHT22;10223;50.862;4.360;2024-03-02T10:14:06;9.90;99.90
20125;DHT22;10223;50.862;4.360;2024-03-02T10:16:35;10.10;99.90
20125;DHT22;10223;50.862;4.360;2024-03-02T10:19:18;10.10;99.90
20125;DHT22;10223;50.862;4.360;2024-03-02T10:21:47;10.10;99.90
20125;DHT22;10223;50.862;4.360;2024-03-02T10:24:16;10.20;99.90
20125;DHT22;10223;50.862;4.360;2024-03-02T10:26:43;10.40;99.90
20125;DHT22;10223;50.862;4.360;2024-03-02T10:29:11;10.40;99.90
20125;DHT22;10223;50.862;4.360;2024-03-02T10:31:38;10.40;99.90
20125;DHT22;10223;50.862;4.360;2024-03-02T10:34:06;10.40;99.90
20125;DHT22;10223;50.862;4.360;2024-03-02T10:36:33;10.40;99.90
20125;DHT22;10223;50.862;4.360;2024-03-02T10:39:04;10.60;99.90
20125;DHT22;10223;50.862;4.360;2024-03-02T10:41:33;10.70;99.90
20125;DHT22;10223;50.862;4.360;2024-03-02T10:44:02;10.80;99.90
20125;DHT22;10223;50.862;4.360;2024-03-02T10:46:30;11.00;99.90
20125;DHT22;10223;50.862;4.360;2024-03-02T10:48:58;10.90;99.90
20125;DHT22;10223;50.862;4.360;2024-03-02T10:51:25;10.80;99.90
20125;DHT22;10223;50.862;4.360;2024-03-02T10:53:53;10.70;99.90
20125;DHT22;10223;50.862;4.360;2024-03-02T10:56:28;10.80;99.90
20125;DHT22;10223;50.862;4.360;2024-03-02T10:59:02;10.90;99.90
20125;DHT22;10223;50.862;4.360;2024-03-02T11:01:31;10.90;99.90
20125;DHT22;10223;50.862;4.360;2024-03-02T11:03:59;10.80;99.90
20125;DHT22;10223;50.862;4.360;2024-03-02T11:06:28;10.80;99.90
20125;DHT22;10223;50.862;4.360;2024-03-02T11:09:00;10.70;99.90
20125;DHT22;10223;50.862;4.360;2024-03-02T11:11:37;10.60;99.90
20125;DHT22;10223;50.862;4.360;2024-03-02T11:14:07;10.70;99.90
20125;DHT22;10223;50.862;4.360;2024-03-02T11:16:38;10.80;99.90
20125;DHT22;10223;50.862;4.360;2024-03-02T11:19:09;10.70;99.90
20125;DHT22;10223;50.862;4.360;2024-03-02T11:21:37;10.90;99.90
20125;DHT22;10223;50.862;4.360;2024-03-02T11:24:32;10.90;99.90
20125;DHT22;10223;50.862;4.360;2024-03-02T11:27:01;11.00;99.90
20125;DHT22;10223;50.862;4.360;2024-03-02T11:29:46;11.10;99.90
20125;DHT22;10223;50.862;4.360;2024-03-02T11:32:19;11.10;99.90
20125;DHT22;10223;50.862;4.360;2024-03-02T11:34:48;11.10;99.90
20125;DHT22;10223;50.862;4.360;2024-03-02T11:37:15;11.20;99.90
20125;DHT22;10223;50.862;4.360;2024-03-02T11:39:44;11.30;99.90
20125;DHT22;10223;50.862;4.360;2024-03-02T11:42:13;11.30;99.90
20125;DHT22;10223;50.862;4.360;2024-03-02T11:44:42;11.20;99.90
20125;DHT22;10223;50.862;4.360;2024-03-02T11:47:11;11.30;99.90
20125;DHT22;10223;50.862;4.360;2024-03-02T11:49:42;11.30;99.90
20125;DHT22;10223;50.862;4.360;2024-03-02T11:52:10;11.40;99.90
20125;DHT22;10223;50.862;4.360;2024-03-02T11:54:39;11.40;99.90
20125;DHT22;10223;50.862;4.360;2024-03-02T11:57:06;11.50;99.90
20125;DHT22;10223;50.862;4.360;2024-03-02T11:59:35;11.70;99.90
20125;DHT22;10223;50.862;4.360;2024-03-02T12:02:02;11.80;99.90
20125;DHT22;10223;50.862;4.360;2024-03-02T12:04:30;11.70;99.90
20125;DHT22;10223;50.862;4.360;2024-03-02T12:07:00;11.90;99.90
20125;DHT22;10223;50.862;4.360;2024-03-02T12:09:28;11.90;99.90
20125;DHT22;10223;50.862;4.360;2024-03-02T12:12:05;11.80;99.90
20125;DHT22;10223;50.862;4.360;2024-03-02T12:14:33;11.80;99.90
20125;DHT22;10223;50.862;4.360;2024-03-02T12:17:02;11.70;99.90
20125;DHT22;10223;50.862;4.360;2024-03-02T12:19:29;11.70;99.90
20125;DHT22;10223;50.862;4.360;2024-03-02T12:21:56;11.70;99.90
20125;DHT22;10223;50.862;4.360;2024-03-02T12:24:27;11.80;99.90
20125;DHT22;10223;50.862;4.360;2024-03-02T12:26:54;11.90;99.90
20125;DHT22;10223;50.862;4.360;2024-03-02T12:29:22;12.10;99.90
20125;DHT22;10223;50.862;4.360;2024-03-02T12:31:50;12.20;99.90
20125;DHT22;10223;50.862;4.360;2024-03-02T12:34:19;12.30;99.90
20125;DHT22;10223;50.862;4.360;2024-03-02T12:36:46;12.30;99.90
20125;DHT22;10223;50.862;4.360;2024-03-02T12:39:15;12.30;99.90
20125;DHT22;10223;50.862;4.360;2024-03-02T12:41:43;12.20;99.90
20125;DHT22;10223;50.862;4.360;2024-03-02T12:44:10;12.30;99.90
20125;DHT22;10223;50.862;4.360;2024-03-02T12:46:37;12.30;99.90
20125;DHT22;10223;50.862;4.360;2024-03-02T12:49:08;12.30;99.90
20125;DHT22;10223;50.862;4.360;2024-03-02T12:51:39;12.30;99.90
20125;DHT22;10223;50.862;4.360;2024-03-02T12:54:06;12.30;99.90
20125;DHT22;10223;50.862;4.360;2024-03-02T12:56:34;12.30;99.90
20125;DHT22;10223;50.862;4.360;2024-03-02T12:59:01;12.50;99.90
20125;DHT22;10223;50.862;4.360;2024-03-02T13:01:28;12.60;99.90
20125;DHT22;10223;50.862;4.360;2024-03-02T13:03:58;12.90;99.90
20125;DHT22;10223;50.862;4.360;2024-03-02T13:06:25;13.10;99.90
20125;DHT22;10223;50.862;4.360;2024-03-02T13:08:55;12.90;99.90
20125;DHT22;10223;50.862;4.360;2024-03-02T13:11:22;12.60;99.90
20125;DHT22;10223;50.862;4.360;2024-03-02T13:13:50;12.30;99.90
20125;DHT22;10223;50.862;4.360;2024-03-02T13:16:18;12.30;99.90
20125;DHT22;10223;50.862;4.360;2024-03-02T13:18:45;12.20;99.90
20125;DHT22;10223;50.862;4.360;2024-03-02T13:21:12;12.10;99.90
20125;DHT22;10223;50.862;4.360;2024-03-02T13:23:39;12.10;99.90
20125;DHT22;10223;50.862;4.360;2024-03-02T13:26:08;12.10;99.90
20125;DHT22;10223;50.862;4.360;2024-03-02T13:28:36;12.20;99.90
20125;DHT22;10223;50.862;4.360;2024-03-02T13:31:07;12.20;99.90
20125;DHT22;10223;50.862;4.360;2024-03-02T13:33:34;12.20;99.90
20125;DHT22;10223;50.862;4.360;2024-03-02T13:36:01;12.20;99.90
20125;DHT22;10223;50.862;4.360;2024-03-02T13:38:28;12.20;99.90
20125;DHT22;10223;50.862;4.360;2024-03-02T13:40:59;12.20;99.90
20125;DHT22;10223;50.862;4.360;2024-03-02T13:43:28;12.20;99.90
20125;DHT22;10223;50.862;4.360;2024-03-02T13:45:57;12.20;99.90
20125;DHT22;10223;50.862;4.360;2024-03-02T13:48:24;12.20;99.90
20125;DHT22;10223;50.862;4.360;2024-03-02T13:50:52;12.30;99.90
20125;DHT22;10223;50.862;4.360;2024-03-02T13:53:19;12.20;99.90
20125;DHT22;10223;50.862;4.360;2024-03-02T13:55:46;12.40;99.90
20125;DHT22;10223;50.862;4.360;2024-03-02T13:58:15;12.50;99.90
20125;DHT22;10223;50.862;4.360;2024-03-02T14:00:44;12.40;99.90
20125;DHT22;10223;50.862;4.360;2024-03-02T14:03:11;12.30;99.90
20125;DHT22;10223;50.862;4.360;2024-03-02T14:05:38;12.40;99.90
20125;DHT22;10223;50.862;4.360;2024-03-02T14:08:05;12.30;99.90
20125;DHT22;10223;50.862;4.360;2024-03-02T14:10:32;12.30;99.90
20125;DHT22;10223;50.862;4.360;2024-03-02T14:13:01;12.20;99.90
20125;DHT22;10223;50.862;4.360;2024-03-02T14:15:28;12.10;99.90
20125;DHT22;10223;50.862;4.360;2024-03-02T14:17:57;12.10;99.90
20125;DHT22;10223;50.862;4.360;2024-03-02T14:20:24;12.10;99.90
20125;DHT22;10223;50.862;4.360;2024-03-02T14:22:51;12.10;99.90
20125;DHT22;10223;50.862;4.360;2024-03-02T14:25:18;12.10;99.90
20125;DHT22;10223;50.862;4.360;2024-03-02T14:27:45;12.00;99.90
20125;DHT22;10223;50.862;4.360;2024-03-02T14:30:13;11.80;99.90
20125;DHT22;10223;50.862;4.360;2024-03-02T14:32:40;11.80;99.90
20125;DHT22;10223;50.862;4.360;2024-03-02T14:35:09;11.70;99.90
20125;DHT22;10223;50.862;4.360;2024-03-02T14:37:38;11.70;99.90
20125;DHT22;10223;50.862;4.360;2024-03-02T14:40:06;11.70;99.90
20125;DHT22;10223;50.862;4.360;2024-03-02T14:42:35;11.70;99.90
20125;DHT22;10223;50.862;4.360;2024-03-02T14:45:02;11.80;99.90
20125;DHT22;10223;50.862;4.360;2024-03-02T14:47:31;11.80;99.90
20125;DHT22;10223;50.862;4.360;2024-03-02T14:49:59;11.80;99.90
20125;DHT22;10223;50.862;4.360;2024-03-02T14:52:27;11.80;99.90
20125;DHT22;10223;50.862;4.360;2024-03-02T14:54:57;11.90;99.90
20125;DHT22;10223;50.862;4.360;2024-03-02T14:57:24;11.90;99.90
20125;DHT22;10223;50.862;4.360;2024-03-02T14:59:51;11.90;99.90
20125;DHT22;10223;50.862;4.360;2024-03-02T15:02:18;11.80;99.90
20125;DHT22;10223;50.862;4.360;2024-03-02T15:04:45;11.80;99.90
20125;DHT22;10223;50.862;4.360;2024-03-02T15:07:14;11.80;99.90
20125;DHT22;10223;50.862;4.360;2024-03-02T15:09:43;11.80;99.90
20125;DHT22;10223;50.862;4.360;2024-03-02T15:12:10;11.90;99.90
20125;DHT22;10223;50.862;4.360;2024-03-02T15:14:38;11.90;99.90
20125;DHT22;10223;50.862;4.360;2024-03-02T15:17:12;11.80;99.90
20125;DHT22;10223;50.862;4.360;2024-03-02T15:19:43;11.80;99.90
20125;DHT22;10223;50.862;4.360;2024-03-02T15:22:12;11.70;99.90
20125;DHT22;10223;50.862;4.360;2024-03-02T15:24:39;11.70;99.90
20125;DHT22;10223;50.862;4.360;2024-03-02T15:27:08;11.60;99.90
20125;DHT22;10223;50.862;4.360;2024-03-02T15:29:35;11.50;99.90
20125;DHT22;10223;50.862;4.360;2024-03-02T15:32:02;11.50;99.90
20125;DHT22;10223;50.862;4.360;2024-03-02T15:34:32;11.60;99.90
20125;DHT22;10223;50.862;4.360;2024-03-02T15:36:59;11.60;99.90
20125;DHT22;10223;50.862;4.360;2024-03-02T15:39:26;11.50;99.90
20125;DHT22;10223;50.862;4.360;2024-03-02T15:41:53;11.60;99.90
20125;DHT22;10223;50.862;4.360;2024-03-02T15:44:21;11.60;99.90
20125;DHT22;10223;50.862;4.360;2024-03-02T15:46:48;11.60;99.90